Electra, TX (76360)

12:46 AM CDT on August 29, 2016 (GMT -0500)
Armory Ranch | | Change Station

Elev 1145 ft 34.08 °N, 98.90 °W | Updated 0 second ago

Clear
Clear
75.6 °F
Feels Like 76 °F
N
2.0
Wind Variable Wind from SE
Gusts 4.9 mph

Today
High -- | Low -- °F
--% Chance of Precip.
Yesterday
High -- | Low -- °F
Precip. -- in
Pressure 30.08 in
Visibility 10.0 miles
Clouds Clear
Heat Index 76 °F
Dew Point 69 °F
Humidity 80%
Rainfall 0.00 in
Snow Depth Not available.
7:07 AM 8:04 PM
Waning Crescent, 11% visible
METAR KF05 290535Z AUTO 14004KT 10SM CLR 25/17 A3008 RMK AO1 LTG DSNT NW T02470172
Pressure 30.08 in
Visibility 10.0 miles
Clouds Clear
Heat Index 76 °F
Dew Point 69 °F
Humidity 80%
Rainfall 0.00 in
Snow Depth Not available.
7:07 AM 8:04 PM
Waning Crescent, 11% visible
METAR KF05 290535Z AUTO 14004KT 10SM CLR 25/17 A3008 RMK AO1 LTG DSNT NW T02470172

10-Day Weather Forecast

Almanac

Astronomy

Aug. 29, 2016 Rise Set
Actual Time
Civil Twilight
Nautical Twilight
Astronomical Twilight
Moon
Length of Visible Light
Length of Day
Tomorrow will be .
, % of the Moon is Illuminated

Today's Extremes

State Highs State Lows

Community

WunderPhotos

Upload Photos

1,935,800 photos uploaded!

WunderBlog® & News

Nearby

Air Quality

  Air Quality AQ Index Pollutant
Not available.

Snow Depth

Station Depth Elevation

Earthquake Activity

City Distance Mag. Time & Date
Minimum magnitude displayed is 2.5.

Coastal Water Temperatures

Place Temperature

Stations

Nearby Weather Stations

Station Location Temp. Windchill Dew Point Humidity Wind Precip. Elev Updated Type
                   

Watches & Warnings

There are currently no watches in effect.